sensor_id;sensor_type;location;lat;lon;timestamp;temperature;humidity
66610;DHT22;53468;48.276;14.416;2022-08-03T00:00:23;17.90;99.90
66610;DHT22;53468;48.276;14.416;2022-08-03T00:05:57;17.80;99.90
66610;DHT22;53468;48.276;14.416;2022-08-03T00:11:31;17.80;99.90
66610;DHT22;53468;48.276;14.416;2022-08-03T00:17:03;17.70;99.90
66610;DHT22;53468;48.276;14.416;2022-08-03T00:22:37;17.70;99.90
66610;DHT22;53468;48.276;14.416;2022-08-03T00:28:10;17.70;99.90
66610;DHT22;53468;48.276;14.416;2022-08-03T00:33:42;17.60;99.90
66610;DHT22;53468;48.276;14.416;2022-08-03T00:39:15;17.70;99.90
66610;DHT22;53468;48.276;14.416;2022-08-03T00:44:47;17.60;99.90
66610;DHT22;53468;48.276;14.416;2022-08-03T00:50:21;17.60;99.90
66610;DHT22;53468;48.276;14.416;2022-08-03T00:55:55;17.50;99.90
66610;DHT22;53468;48.276;14.416;2022-08-03T01:01:27;17.50;99.90
66610;DHT22;53468;48.276;14.416;2022-08-03T01:07:05;17.50;99.90
66610;DHT22;53468;48.276;14.416;2022-08-03T01:12:46;17.40;99.90
66610;DHT22;53468;48.276;14.416;2022-08-03T01:18:31;17.40;99.90
66610;DHT22;53468;48.276;14.416;2022-08-03T01:24:16;17.40;99.90
66610;DHT22;53468;48.276;14.416;2022-08-03T01:30:03;17.20;99.90
66610;DHT22;53468;48.276;14.416;2022-08-03T01:35:40;17.30;99.90
66610;DHT22;53468;48.276;14.416;2022-08-03T01:41:20;17.20;99.90
66610;DHT22;53468;48.276;14.416;2022-08-03T01:46:57;17.20;99.90
66610;DHT22;53468;48.276;14.416;2022-08-03T01:52:31;17.10;99.90
66610;DHT22;53468;48.276;14.416;2022-08-03T01:58:04;17.10;99.90
66610;DHT22;53468;48.276;14.416;2022-08-03T02:03:40;17.10;99.90
66610;DHT22;53468;48.276;14.416;2022-08-03T02:09:15;17.00;99.90
66610;DHT22;53468;48.276;14.416;2022-08-03T02:14:48;17.00;99.90
66610;DHT22;53468;48.276;14.416;2022-08-03T02:20:23;16.90;99.90
66610;DHT22;53468;48.276;14.416;2022-08-03T02:25:57;16.90;99.90
66610;DHT22;53468;48.276;14.416;2022-08-03T02:31:33;16.90;99.90
66610;DHT22;53468;48.276;14.416;2022-08-03T02:37:12;16.80;99.90
66610;DHT22;53468;48.276;14.416;2022-08-03T02:42:46;16.80;99.90
66610;DHT22;53468;48.276;14.416;2022-08-03T02:48:23;16.80;99.90
66610;DHT22;53468;48.276;14.416;2022-08-03T02:53:59;16.70;99.90
66610;DHT22;53468;48.276;14.416;2022-08-03T02:59:33;16.70;99.90
66610;DHT22;53468;48.276;14.416;2022-08-03T03:05:09;16.60;99.90
66610;DHT22;53468;48.276;14.416;2022-08-03T03:10:43;16.70;99.90
66610;DHT22;53468;48.276;14.416;2022-08-03T03:16:17;16.70;99.90
66610;DHT22;53468;48.276;14.416;2022-08-03T03:21:51;16.50;99.90
66610;DHT22;53468;48.276;14.416;2022-08-03T03:27:28;16.50;99.90
66610;DHT22;53468;48.276;14.416;2022-08-03T03:33:00;16.50;99.90
66610;DHT22;53468;48.276;14.416;2022-08-03T03:38:36;16.40;99.90
66610;DHT22;53468;48.276;14.416;2022-08-03T03:44:10;16.40;99.90
66610;DHT22;53468;48.276;14.416;2022-08-03T03:49:42;16.40;99.90
66610;DHT22;53468;48.276;14.416;2022-08-03T03:55:15;16.40;99.90
66610;DHT22;53468;48.276;14.416;2022-08-03T04:00:52;16.40;99.90
66610;DHT22;53468;48.276;14.416;2022-08-03T04:06:25;16.40;99.90
66610;DHT22;53468;48.276;14.416;2022-08-03T04:12:16;16.40;99.90
66610;DHT22;53468;48.276;14.416;2022-08-03T04:17:52;16.40;99.90
66610;DHT22;53468;48.276;14.416;2022-08-03T04:23:29;16.40;99.90
66610;DHT22;53468;48.276;14.416;2022-08-03T04:29:05;16.40;99.90
66610;DHT22;53468;48.276;14.416;2022-08-03T04:34:39;16.50;99.90
66610;DHT22;53468;48.276;14.416;2022-08-03T04:40:14;16.60;99.90
66610;DHT22;53468;48.276;14.416;2022-08-03T04:45:50;16.60;99.90
66610;DHT22;53468;48.276;14.416;2022-08-03T04:51:26;16.70;99.90
66610;DHT22;53468;48.276;14.416;2022-08-03T04:57:00;16.70;99.90
66610;DHT22;53468;48.276;14.416;2022-08-03T05:02:33;16.80;99.90
66610;DHT22;53468;48.276;14.416;2022-08-03T05:59:06;17.90;99.90
66610;DHT22;53468;48.276;14.416;2022-08-03T06:04:39;18.10;99.90
66610;DHT22;53468;48.276;14.416;2022-08-03T06:10:11;18.20;99.90
66610;DHT22;53468;48.276;14.416;2022-08-03T06:15:46;18.30;99.90
66610;DHT22;53468;48.276;14.416;2022-08-03T06:21:18;18.60;99.90
66610;DHT22;53468;48.276;14.416;2022-08-03T06:26:51;18.80;99.90
66610;DHT22;53468;48.276;14.416;2022-08-03T06:32:25;19.00;99.90
66610;DHT22;53468;48.276;14.416;2022-08-03T06:37:57;19.20;99.90
66610;DHT22;53468;48.276;14.416;2022-08-03T06:43:29;19.40;99.90
66610;DHT22;53468;48.276;14.416;2022-08-03T06:49:02;19.60;99.90
66610;DHT22;53468;48.276;14.416;2022-08-03T06:54:35;19.90;99.90
66610;DHT22;53468;48.276;14.416;2022-08-03T07:00:08;20.60;99.90
66610;DHT22;53468;48.276;14.416;2022-08-03T07:05:45;21.90;99.90
66610;DHT22;53468;48.276;14.416;2022-08-03T07:11:17;22.90;99.90
66610;DHT22;53468;48.276;14.416;2022-08-03T07:16:50;23.70;99.90
66610;DHT22;53468;48.276;14.416;2022-08-03T07:22:24;24.70;99.90
66610;DHT22;53468;48.276;14.416;2022-08-03T07:27:56;25.30;99.90
66610;DHT22;53468;48.276;14.416;2022-08-03T07:33:28;26.00;99.90
66610;DHT22;53468;48.276;14.416;2022-08-03T07:39:02;26.00;99.90
66610;DHT22;53468;48.276;14.416;2022-08-03T07:44:34;26.80;99.90
66610;DHT22;53468;48.276;14.416;2022-08-03T07:50:07;27.20;99.90
66610;DHT22;53468;48.276;14.416;2022-08-03T07:55:41;27.30;99.20
66610;DHT22;53468;48.276;14.416;2022-08-03T08:01:13;28.00;98.90
66610;DHT22;53468;48.276;14.416;2022-08-03T08:06:46;28.10;96.00
66610;DHT22;53468;48.276;14.416;2022-08-03T08:12:21;28.10;96.10
66610;DHT22;53468;48.276;14.416;2022-08-03T08:17:55;28.20;93.70
66610;DHT22;53468;48.276;14.416;2022-08-03T08:23:28;28.50;95.60
66610;DHT22;53468;48.276;14.416;2022-08-03T08:29:02;28.60;95.40
66610;DHT22;53468;48.276;14.416;2022-08-03T08:34:37;28.50;95.10
66610;DHT22;53468;48.276;14.416;2022-08-03T08:40:10;28.50;93.60
66610;DHT22;53468;48.276;14.416;2022-08-03T08:45:45;28.30;92.90
66610;DHT22;53468;48.276;14.416;2022-08-03T08:51:20;28.60;96.80
66610;DHT22;53468;48.276;14.416;2022-08-03T08:56:52;28.90;95.30
66610;DHT22;53468;48.276;14.416;2022-08-03T09:02:30;28.90;95.40
66610;DHT22;53468;48.276;14.416;2022-08-03T09:08:04;29.00;93.00
66610;DHT22;53468;48.276;14.416;2022-08-03T09:13:37;29.10;95.00
66610;DHT22;53468;48.276;14.416;2022-08-03T09:19:12;29.00;95.60
66610;DHT22;53468;48.276;14.416;2022-08-03T09:24:55;29.10;95.10
66610;DHT22;53468;48.276;14.416;2022-08-03T09:30:27;29.30;95.20
66610;DHT22;53468;48.276;14.416;2022-08-03T09:36:01;29.20;92.80
66610;DHT22;53468;48.276;14.416;2022-08-03T09:41:33;29.30;93.40
66610;DHT22;53468;48.276;14.416;2022-08-03T09:47:05;29.30;92.90
66610;DHT22;53468;48.276;14.416;2022-08-03T09:52:39;29.50;94.70
66610;DHT22;53468;48.276;14.416;2022-08-03T09:58:12;29.50;92.80
66610;DHT22;53468;48.276;14.416;2022-08-03T10:03:57;29.40;91.40
66610;DHT22;53468;48.276;14.416;2022-08-03T10:09:31;29.50;93.80
66610;DHT22;53468;48.276;14.416;2022-08-03T10:15:07;29.40;91.10
66610;DHT22;53468;48.276;14.416;2022-08-03T10:20:43;29.60;94.50
66610;DHT22;53468;48.276;14.416;2022-08-03T10:26:18;29.60;93.10
66610;DHT22;53468;48.276;14.416;2022-08-03T10:31:55;29.70;92.90
66610;DHT22;53468;48.276;14.416;2022-08-03T10:37:31;29.90;95.70
66610;DHT22;53468;48.276;14.416;2022-08-03T10:43:09;29.80;91.40
66610;DHT22;53468;48.276;14.416;2022-08-03T10:48:43;29.90;90.10
66610;DHT22;53468;48.276;14.416;2022-08-03T10:54:37;29.80;90.30
66610;DHT22;53468;48.276;14.416;2022-08-03T11:00:47;29.80;85.00
66610;DHT22;53468;48.276;14.416;2022-08-03T11:06:21;29.80;88.00
66610;DHT22;53468;48.276;14.416;2022-08-03T11:11:54;29.90;90.60
66610;DHT22;53468;48.276;14.416;2022-08-03T11:17:28;29.80;87.10
66610;DHT22;53468;48.276;14.416;2022-08-03T11:23:00;29.80;83.40
66610;DHT22;53468;48.276;14.416;2022-08-03T11:28:33;29.90;87.30
66610;DHT22;53468;48.276;14.416;2022-08-03T11:34:08;30.00;84.90
66610;DHT22;53468;48.276;14.416;2022-08-03T11:39:40;30.10;83.60
66610;DHT22;53468;48.276;14.416;2022-08-03T11:45:13;30.10;80.70
66610;DHT22;53468;48.276;14.416;2022-08-03T11:50:47;30.00;77.00
66610;DHT22;53468;48.276;14.416;2022-08-03T11:56:19;30.00;86.30
66610;DHT22;53468;48.276;14.416;2022-08-03T12:02:05;30.10;85.50
66610;DHT22;53468;48.276;14.416;2022-08-03T12:07:45;30.20;82.70
66610;DHT22;53468;48.276;14.416;2022-08-03T12:13:18;30.20;80.40
66610;DHT22;53468;48.276;14.416;2022-08-03T12:18:54;30.30;80.60
66610;DHT22;53468;48.276;14.416;2022-08-03T12:24:39;30.20;80.00
66610;DHT22;53468;48.276;14.416;2022-08-03T12:30:11;30.30;80.40
66610;DHT22;53468;48.276;14.416;2022-08-03T12:35:44;30.40;75.40
66610;DHT22;53468;48.276;14.416;2022-08-03T12:41:27;30.50;81.00
66610;DHT22;53468;48.276;14.416;2022-08-03T12:47:00;30.40;76.60
66610;DHT22;53468;48.276;14.416;2022-08-03T12:52:42;30.50;76.50
66610;DHT22;53468;48.276;14.416;2022-08-03T12:58:29;30.50;78.90
66610;DHT22;53468;48.276;14.416;2022-08-03T13:04:03;30.50;75.10
66610;DHT22;53468;48.276;14.416;2022-08-03T13:09:46;30.50;80.80
66610;DHT22;53468;48.276;14.416;2022-08-03T13:15:20;30.50;72.20
66610;DHT22;53468;48.276;14.416;2022-08-03T13:20:52;30.60;72.10
66610;DHT22;53468;48.276;14.416;2022-08-03T13:26:24;30.50;72.10
66610;DHT22;53468;48.276;14.416;2022-08-03T13:31:58;30.60;71.10
66610;DHT22;53468;48.276;14.416;2022-08-03T13:37:30;30.70;74.80
66610;DHT22;53468;48.276;14.416;2022-08-03T13:43:03;30.70;74.70
66610;DHT22;53468;48.276;14.416;2022-08-03T13:48:36;30.70;70.50
66610;DHT22;53468;48.276;14.416;2022-08-03T13:54:10;30.90;72.30
66610;DHT22;53468;48.276;14.416;2022-08-03T13:59:42;31.00;74.20
66610;DHT22;53468;48.276;14.416;2022-08-03T14:05:17;31.00;67.40
66610;DHT22;53468;48.276;14.416;2022-08-03T14:10:49;31.00;70.00
66610;DHT22;53468;48.276;14.416;2022-08-03T14:16:21;31.00;64.90
66610;DHT22;53468;48.276;14.416;2022-08-03T14:21:55;31.00;69.50
66610;DHT22;53468;48.276;14.416;2022-08-03T14:27:27;31.00;67.60
66610;DHT22;53468;48.276;14.416;2022-08-03T14:32:59;31.00;70.90
66610;DHT22;53468;48.276;14.416;2022-08-03T14:38:33;30.90;63.90
66610;DHT22;53468;48.276;14.416;2022-08-03T14:44:05;30.90;67.10
66610;DHT22;53468;48.276;14.416;2022-08-03T14:49:38;31.00;67.10
66610;DHT22;53468;48.276;14.416;2022-08-03T14:55:11;30.80;71.00
66610;DHT22;53468;48.276;14.416;2022-08-03T15:00:43;30.80;67.60
66610;DHT22;53468;48.276;14.416;2022-08-03T15:06:15;30.70;66.60
66610;DHT22;53468;48.276;14.416;2022-08-03T15:11:49;30.60;62.30
66610;DHT22;53468;48.276;14.416;2022-08-03T15:17:21;30.70;70.10
66610;DHT22;53468;48.276;14.416;2022-08-03T15:22:53;30.60;69.30
66610;DHT22;53468;48.276;14.416;2022-08-03T15:28:26;30.60;70.90
66610;DHT22;53468;48.276;14.416;2022-08-03T15:33:59;30.50;71.60
66610;DHT22;53468;48.276;14.416;2022-08-03T15:39:31;30.40;72.70
66610;DHT22;53468;48.276;14.416;2022-08-03T15:45:06;30.30;69.50
66610;DHT22;53468;48.276;14.416;2022-08-03T15:50:38;30.30;67.60
66610;DHT22;53468;48.276;14.416;2022-08-03T15:56:11;30.20;70.80
66610;DHT22;53468;48.276;14.416;2022-08-03T16:01:45;30.10;73.00
66610;DHT22;53468;48.276;14.416;2022-08-03T16:07:18;30.00;74.10
66610;DHT22;53468;48.276;14.416;2022-08-03T16:13:11;29.90;74.00
66610;DHT22;53468;48.276;14.416;2022-08-03T16:18:45;29.90;73.00
66610;DHT22;53468;48.276;14.416;2022-08-03T16:24:17;29.80;73.20
66610;DHT22;53468;48.276;14.416;2022-08-03T16:29:49;29.80;70.90
66610;DHT22;53468;48.276;14.416;2022-08-03T16:35:23;29.60;73.20
66610;DHT22;53468;48.276;14.416;2022-08-03T16:40:55;29.40;71.40
66610;DHT22;53468;48.276;14.416;2022-08-03T16:46:27;29.20;75.10
66610;DHT22;53468;48.276;14.416;2022-08-03T16:52:00;28.90;75.30
66610;DHT22;53468;48.276;14.416;2022-08-03T16:57:32;28.60;75.50
66610;DHT22;53468;48.276;14.416;2022-08-03T17:03:06;28.40;77.00
66610;DHT22;53468;48.276;14.416;2022-08-03T17:08:40;28.20;79.00
66610;DHT22;53468;48.276;14.416;2022-08-03T17:14:13;27.90;77.20
66610;DHT22;53468;48.276;14.416;2022-08-03T17:19:46;27.90;76.70
66610;DHT22;53468;48.276;14.416;2022-08-03T17:25:21;27.60;79.70
66610;DHT22;53468;48.276;14.416;2022-08-03T17:30:55;27.40;79.10
66610;DHT22;53468;48.276;14.416;2022-08-03T17:36:46;27.30;78.50
66610;DHT22;53468;48.276;14.416;2022-08-03T17:42:21;27.10;77.60
66610;DHT22;53468;48.276;14.416;2022-08-03T17:47:55;26.90;78.80
66610;DHT22;53468;48.276;14.416;2022-08-03T17:53:28;26.70;79.70
66610;DHT22;53468;48.276;14.416;2022-08-03T17:59:12;26.50;83.50
66610;DHT22;53468;48.276;14.416;2022-08-03T18:04:49;26.20;81.40
66610;DHT22;53468;48.276;14.416;2022-08-03T18:10:24;26.00;82.30
66610;DHT22;53468;48.276;14.416;2022-08-03T18:16:00;25.80;83.20
66610;DHT22;53468;48.276;14.416;2022-08-03T18:21:33;25.60;82.00
66610;DHT22;53468;48.276;14.416;2022-08-03T18:27:07;25.30;83.40
66610;DHT22;53468;48.276;14.416;2022-08-03T18:32:42;25.10;84.60
66610;DHT22;53468;48.276;14.416;2022-08-03T18:38:15;24.90;85.50
66610;DHT22;53468;48.276;14.416;2022-08-03T18:43:48;24.50;87.20
66610;DHT22;53468;48.276;14.416;2022-08-03T18:49:27;24.30;87.20
66610;DHT22;53468;48.276;14.416;2022-08-03T18:55:06;24.10;90.00
66610;DHT22;53468;48.276;14.416;2022-08-03T19:00:44;23.80;94.30
66610;DHT22;53468;48.276;14.416;2022-08-03T19:06:22;23.40;96.30
66610;DHT22;53468;48.276;14.416;2022-08-03T19:11:56;23.30;98.00
66610;DHT22;53468;48.276;14.416;2022-08-03T19:23:05;22.80;99.90
66610;DHT22;53468;48.276;14.416;2022-08-03T19:28:40;22.60;99.90
66610;DHT22;53468;48.276;14.416;2022-08-03T19:34:12;22.50;99.90
66610;DHT22;53468;48.276;14.416;2022-08-03T19:39:46;22.30;99.90
66610;DHT22;53468;48.276;14.416;2022-08-03T19:45:25;22.20;99.90
66610;DHT22;53468;48.276;14.416;2022-08-03T19:50:59;22.10;99.90
66610;DHT22;53468;48.276;14.416;2022-08-03T19:56:43;21.90;99.90
66610;DHT22;53468;48.276;14.416;2022-08-03T20:02:16;21.70;99.90
66610;DHT22;53468;48.276;14.416;2022-08-03T20:07:49;21.60;99.90
66610;DHT22;53468;48.276;14.416;2022-08-03T20:13:24;21.40;99.90
66610;DHT22;53468;48.276;14.416;2022-08-03T20:18:57;21.50;99.90
66610;DHT22;53468;48.276;14.416;2022-08-03T20:24:32;21.20;99.90
66610;DHT22;53468;48.276;14.416;2022-08-03T20:30:08;21.10;99.90
66610;DHT22;53468;48.276;14.416;2022-08-03T20:35:41;21.00;99.90
66610;DHT22;53468;48.276;14.416;2022-08-03T20:41:14;20.90;99.90
66610;DHT22;53468;48.276;14.416;2022-08-03T20:46:48;20.80;99.90
66610;DHT22;53468;48.276;14.416;2022-08-03T20:52:21;20.70;99.90
66610;DHT22;53468;48.276;14.416;2022-08-03T20:57:54;20.80;99.90
66610;DHT22;53468;48.276;14.416;2022-08-03T21:03:30;20.70;99.90
66610;DHT22;53468;48.276;14.416;2022-08-03T21:09:04;20.60;99.90
66610;DHT22;53468;48.276;14.416;2022-08-03T21:14:41;20.50;99.90
66610;DHT22;53468;48.276;14.416;2022-08-03T21:20:16;20.30;99.90
66610;DHT22;53468;48.276;14.416;2022-08-03T21:25:48;20.40;99.90
66610;DHT22;53468;48.276;14.416;2022-08-03T21:31:25;20.30;99.90
66610;DHT22;53468;48.276;14.416;2022-08-03T21:36:59;20.20;99.90
66610;DHT22;53468;48.276;14.416;2022-08-03T21:42:31;20.20;99.90
66610;DHT22;53468;48.276;14.416;2022-08-03T21:48:04;20.00;99.90
66610;DHT22;53468;48.276;14.416;2022-08-03T21:53:41;20.10;99.90
66610;DHT22;53468;48.276;14.416;2022-08-03T21:59:16;19.90;99.90
66610;DHT22;53468;48.276;14.416;2022-08-03T22:04:49;19.80;99.90
66610;DHT22;53468;48.276;14.416;2022-08-03T22:10:23;19.70;99.90
66610;DHT22;53468;48.276;14.416;2022-08-03T22:15:58;19.70;99.90
66610;DHT22;53468;48.276;14.416;2022-08-03T22:21:32;19.60;99.90
66610;DHT22;53468;48.276;14.416;2022-08-03T22:27:06;19.50;99.90
66610;DHT22;53468;48.276;14.416;2022-08-03T22:32:56;19.40;99.90
66610;DHT22;53468;48.276;14.416;2022-08-03T22:38:29;19.50;99.90
66610;DHT22;53468;48.276;14.416;2022-08-03T22:44:05;19.40;99.90
66610;DHT22;53468;48.276;14.416;2022-08-03T22:49:39;19.30;99.90
66610;DHT22;53468;48.276;14.416;2022-08-03T22:55:14;19.30;99.90
66610;DHT22;53468;48.276;14.416;2022-08-03T23:00:53;19.30;99.90
66610;DHT22;53468;48.276;14.416;2022-08-03T23:06:27;19.20;99.90
66610;DHT22;53468;48.276;14.416;2022-08-03T23:12:03;19.10;99.90
66610;DHT22;53468;48.276;14.416;2022-08-03T23:17:41;19.10;99.90
66610;DHT22;53468;48.276;14.416;2022-08-03T23:23:15;19.00;99.90
66610;DHT22;53468;48.276;14.416;2022-08-03T23:28:47;19.00;99.90
66610;DHT22;53468;48.276;14.416;2022-08-03T23:34:22;18.90;99.90
66610;DHT22;53468;48.276;14.416;2022-08-03T23:40:12;19.00;99.90
66610;DHT22;53468;48.276;14.416;2022-08-03T23:45:47;18.90;99.90
66610;DHT22;53468;48.276;14.416;2022-08-03T23:51:26;18.90;99.90
66610;DHT22;53468;48.276;14.416;2022-08-03T23:57:07;18.80;99.90
